createdAt,value
2022-12-01T00:01:14.021Z,19.27
2022-12-01T00:03:40.985Z,19.58
2022-12-01T00:06:13.126Z,18.08
2022-12-01T00:08:40.009Z,18.77
2022-12-01T00:11:14.121Z,17.45
2022-12-01T00:13:41.036Z,17.85
2022-12-01T00:16:16.114Z,18.20
2022-12-01T00:18:43.535Z,18.90
2022-12-01T00:21:18.283Z,17.05
2022-12-01T00:23:49.668Z,17.27
2022-12-01T00:26:17.735Z,17.38
2022-12-01T00:28:44.674Z,17.15
2022-12-01T00:31:12.589Z,17.50
2022-12-01T00:33:40.049Z,17.45
2022-12-01T00:36:07.487Z,16.42
2022-12-01T00:38:35.149Z,15.98
2022-12-01T00:41:02.644Z,16.60
2022-12-01T00:43:29.693Z,16.27
2022-12-01T00:45:56.920Z,16.58
2022-12-01T00:48:24.331Z,16.15
2022-12-01T00:50:52.917Z,15.82
2022-12-01T00:53:19.870Z,15.60
2022-12-01T00:55:46.922Z,16.25
2022-12-01T00:58:13.772Z,15.05
2022-12-01T01:00:40.711Z,14.98
2022-12-01T01:03:07.952Z,15.27
2022-12-01T01:05:39.351Z,15.70
2022-12-01T01:08:11.417Z,15.13
2022-12-01T01:10:42.309Z,15.63
2022-12-01T01:13:09.721Z,15.40
2022-12-01T01:15:36.945Z,14.75
2022-12-01T01:18:04.445Z,14.27
2022-12-01T01:20:31.938Z,14.20
2022-12-01T01:22:58.996Z,14.07
2022-12-01T01:25:28.909Z,14.43
2022-12-01T01:27:55.882Z,14.43
2022-12-01T01:30:22.846Z,13.85
2022-12-01T01:32:49.792Z,13.60
2022-12-01T01:35:16.699Z,13.25
2022-12-01T01:37:43.667Z,12.93
2022-12-01T01:40:11.445Z,13.00
2022-12-01T01:42:38.321Z,12.75
2022-12-01T01:45:11.441Z,13.40
2022-12-01T01:47:40.179Z,13.73
2022-12-01T01:50:10.801Z,11.98
2022-12-01T01:53:01.775Z,12.82
2022-12-01T01:55:34.123Z,12.88
2022-12-01T01:58:03.152Z,11.93
2022-12-01T02:00:30.044Z,11.77
2022-12-01T02:02:57.743Z,12.20
2022-12-01T02:05:28.239Z,12.23
2022-12-01T02:07:56.832Z,11.57
2022-12-01T02:10:34.793Z,12.13
2022-12-01T02:13:04.723Z,11.18
2022-12-01T02:15:40.596Z,11.50
2022-12-01T02:18:19.412Z,12.00
2022-12-01T02:21:10.547Z,12.20
2022-12-01T02:24:05.390Z,11.27
2022-12-01T02:26:53.825Z,12.13
2022-12-01T02:29:51.512Z,11.68
2022-12-01T02:33:02.036Z,10.77
2022-12-01T02:36:04.236Z,10.32
2022-12-01T02:38:56.886Z,10.60
2022-12-01T02:41:34.549Z,10.73
2022-12-01T02:44:16.556Z,11.15
2022-12-01T02:46:43.388Z,10.60
2022-12-01T02:49:26.276Z,10.10
2022-12-01T02:51:54.925Z,11.20
2022-12-01T02:54:22.341Z,10.45
2022-12-01T02:56:53.348Z,10.68
2022-12-01T03:01:56.674Z,10.32
2022-12-01T03:04:28.449Z,9.90
2022-12-01T03:06:58.390Z,10.40
2022-12-01T03:09:53.796Z,10.20
2022-12-01T03:12:46.412Z,10.82
2022-12-01T03:15:32.636Z,9.48
2022-12-01T03:18:14.585Z,10.02
2022-12-01T03:20:59.639Z,10.05
2022-12-01T03:23:29.792Z,10.10
2022-12-01T03:25:59.384Z,9.90
2022-12-01T03:28:31.038Z,9.68
2022-12-01T03:31:01.049Z,9.43
2022-12-01T03:33:33.177Z,9.60
2022-12-01T03:36:25.890Z,10.18
2022-12-01T03:38:57.241Z,9.57
2022-12-01T03:41:28.377Z,9.10
2022-12-01T03:44:05.908Z,9.40
2022-12-01T03:46:49.412Z,9.85
2022-12-01T03:49:17.830Z,9.32
2022-12-01T03:51:50.064Z,9.48
2022-12-01T03:54:21.572Z,9.52
2022-12-01T03:56:57.881Z,9.23
2022-12-01T03:59:25.118Z,9.48
2022-12-01T04:01:53.057Z,9.80
2022-12-01T04:04:20.140Z,9.23
2022-12-01T04:06:49.138Z,9.32
2022-12-01T04:09:16.506Z,8.82
2022-12-01T04:12:01.904Z,9.25
2022-12-01T04:14:30.080Z,8.60
2022-12-01T04:16:56.923Z,9.10
2022-12-01T04:19:23.797Z,8.55
2022-12-01T04:21:50.703Z,8.93
2022-12-01T04:24:17.548Z,9.25
2022-12-01T04:26:46.086Z,8.60
2022-12-01T04:29:14.851Z,8.98
2022-12-01T04:31:41.865Z,8.85
2022-12-01T04:34:10.349Z,8.40
2022-12-01T04:36:37.243Z,9.43
2022-12-01T04:39:04.457Z,9.13
2022-12-01T04:41:31.309Z,8.68
2022-12-01T04:43:58.154Z,8.85
2022-12-01T04:46:25.444Z,8.93
2022-12-01T04:48:52.783Z,9.25
2022-12-01T04:51:21.376Z,8.57
2022-12-01T04:53:49.331Z,7.95
2022-12-01T04:56:16.248Z,8.07
2022-12-01T04:58:43.228Z,9.50
2022-12-01T05:01:12.620Z,8.10
2022-12-01T05:03:40.877Z,8.80
2022-12-01T05:06:13.836Z,7.90
2022-12-01T05:08:41.033Z,8.30
2022-12-01T05:11:08.798Z,8.38
2022-12-01T05:13:40.314Z,8.73
2022-12-01T05:16:15.185Z,8.20
2022-12-01T05:18:42.716Z,8.02
2022-12-01T05:21:11.133Z,7.97
2022-12-01T05:23:39.291Z,7.10
2022-12-01T05:26:08.742Z,7.72
2022-12-01T05:28:36.037Z,7.07
2022-12-01T05:31:03.784Z,7.30
2022-12-01T05:33:31.208Z,7.07
2022-12-01T05:35:58.165Z,7.65
2022-12-01T05:38:25.162Z,6.93
2022-12-01T05:40:53.239Z,7.25
2022-12-01T05:43:26.925Z,7.13
2022-12-01T05:45:56.158Z,6.82
2022-12-01T05:48:23.628Z,8.02
2022-12-01T05:50:50.499Z,6.80
2022-12-01T05:53:17.872Z,7.45
2022-12-01T05:55:45.007Z,7.28
2022-12-01T05:58:12.549Z,7.38
2022-12-01T06:00:45.340Z,6.93
2022-12-01T06:03:13.586Z,7.38
2022-12-01T06:05:41.111Z,6.88
2022-12-01T06:08:08.380Z,6.75
2022-12-01T06:10:35.437Z,7.57
2022-12-01T06:13:02.562Z,7.03
2022-12-01T06:15:29.435Z,6.93
2022-12-01T06:17:59.745Z,6.72
2022-12-01T06:20:26.908Z,6.68
2022-12-01T06:22:53.845Z,6.78
2022-12-01T06:25:20.734Z,6.75
2022-12-01T06:27:47.690Z,6.93
2022-12-01T06:30:14.785Z,6.40
2022-12-01T06:32:41.634Z,6.88
2022-12-01T06:35:08.955Z,6.53
2022-12-01T06:37:35.871Z,6.28
2022-12-01T06:40:02.732Z,6.78
2022-12-01T06:42:31.666Z,6.60
2022-12-01T06:44:58.560Z,6.88
2022-12-01T06:47:25.432Z,7.22
2022-12-01T06:49:52.743Z,7.78
2022-12-01T06:52:19.821Z,6.60
2022-12-01T06:54:46.735Z,6.75
2022-12-01T06:57:13.784Z,8.88
2022-12-01T06:59:40.959Z,6.72
2022-12-01T07:02:11.258Z,9.07
2022-12-01T07:04:38.219Z,110.55
2022-12-01T07:07:06.342Z,110.80
2022-12-01T07:09:33.290Z,88.45
2022-12-01T07:12:00.164Z,83.65
2022-12-01T07:14:27.718Z,76.35
2022-12-01T07:16:54.944Z,71.38
2022-12-01T07:19:22.283Z,65.43
2022-12-01T07:21:49.198Z,61.40
2022-12-01T07:24:16.232Z,58.00
2022-12-01T07:26:43.573Z,54.53
2022-12-01T07:29:11.191Z,48.88
2022-12-01T07:31:38.915Z,46.70
2022-12-01T07:34:06.238Z,42.65
2022-12-01T07:36:33.611Z,42.70
2022-12-01T07:39:04.482Z,39.45
2022-12-01T07:41:31.417Z,38.08
2022-12-01T07:43:58.366Z,56.30
2022-12-01T07:46:26.837Z,65.05
2022-12-01T07:48:54.906Z,60.65
2022-12-01T07:51:23.084Z,59.58
2022-12-01T07:53:50.893Z,57.95
2022-12-01T07:56:18.423Z,53.00
2022-12-01T07:58:45.310Z,49.80
2022-12-01T08:01:17.899Z,48.28
2022-12-01T08:03:45.322Z,44.28
2022-12-01T08:06:12.492Z,42.85
2022-12-01T08:08:41.379Z,41.90
2022-12-01T08:11:12.200Z,38.75
2022-12-01T08:13:39.714Z,39.80
2022-12-01T08:16:07.989Z,38.08
2022-12-01T08:18:36.194Z,38.63
2022-12-01T08:21:03.686Z,39.35
2022-12-01T08:23:30.696Z,88.78
2022-12-01T08:26:04.521Z,95.53
2022-12-01T08:28:31.601Z,89.45
2022-12-01T08:30:58.557Z,82.20
2022-12-01T08:33:25.520Z,78.68
2022-12-01T08:35:52.934Z,68.53
2022-12-01T08:38:19.813Z,65.32
2022-12-01T08:40:46.695Z,61.33
2022-12-01T08:43:23.159Z,57.38
2022-12-01T08:46:01.604Z,53.33
2022-12-01T08:48:31.814Z,47.63
2022-12-01T08:51:10.965Z,45.90
2022-12-01T08:56:21.326Z,42.50
2022-12-01T08:58:48.521Z,40.92
2022-12-01T09:01:16.854Z,38.65
2022-12-01T09:03:44.406Z,37.35
2022-12-01T09:06:14.511Z,38.38
2022-12-01T09:08:41.868Z,35.35
2022-12-01T09:11:15.384Z,34.30
2022-12-01T09:13:43.390Z,33.60
2022-12-01T09:16:15.269Z,32.88
2022-12-01T09:18:43.117Z,31.08
2022-12-01T09:21:14.626Z,30.58
2022-12-01T09:23:41.812Z,30.38
2022-12-01T09:26:13.347Z,29.33
2022-12-01T09:28:40.849Z,28.55
2022-12-01T09:31:10.652Z,27.92
2022-12-01T09:33:38.437Z,26.90
2022-12-01T09:36:12.157Z,27.20
2022-12-01T09:38:39.776Z,25.30
2022-12-01T09:44:17.423Z,24.20
2022-12-01T09:46:49.312Z,24.33
2022-12-01T09:49:40.029Z,24.02
2022-12-01T09:52:11.068Z,24.23
2022-12-01T09:54:38.035Z,22.75
2022-12-01T09:57:05.068Z,23.70
2022-12-01T10:02:32.871Z,23.65
2022-12-01T10:05:01.926Z,22.55
2022-12-01T10:07:32.197Z,40.08
2022-12-01T10:12:36.063Z,49.95
2022-12-01T10:15:33.587Z,46.50
2022-12-01T10:18:03.457Z,44.38
2022-12-01T10:20:45.613Z,42.28
2022-12-01T10:23:25.001Z,38.45
2022-12-01T10:25:59.432Z,37.50
2022-12-01T10:28:32.458Z,35.53
2022-12-01T10:31:08.423Z,33.15
2022-12-01T10:36:25.544Z,30.25
2022-12-01T10:38:52.547Z,35.22
2022-12-01T10:41:20.767Z,55.30
2022-12-01T10:43:50.661Z,59.42
2022-12-01T10:46:42.105Z,52.90
2022-12-01T10:49:14.387Z,51.72
2022-12-01T10:51:54.515Z,48.47
2022-12-01T10:54:23.177Z,44.95
2022-12-01T10:56:55.119Z,42.63
2022-12-01T11:01:53.978Z,37.53
2022-12-01T11:04:46.527Z,36.30
2022-12-01T11:07:27.355Z,35.83
2022-12-01T11:10:22.661Z,35.53
2022-12-01T11:12:56.603Z,33.72
2022-12-01T11:15:29.631Z,31.63
2022-12-01T11:18:02.119Z,30.50
2022-12-01T11:20:31.905Z,31.80
2022-12-01T11:23:26.821Z,28.83
2022-12-01T11:26:10.936Z,27.63
2022-12-01T11:28:42.385Z,26.20
2022-12-01T11:31:10.606Z,26.30
2022-12-01T11:33:54.961Z,26.27
2022-12-01T11:36:39.821Z,26.00
2022-12-01T11:39:06.705Z,25.08
2022-12-01T11:41:38.165Z,26.10
2022-12-01T11:44:22.556Z,24.20
2022-12-01T11:47:01.649Z,23.23
2022-12-01T11:49:47.111Z,24.20
2022-12-01T11:52:30.736Z,24.95
2022-12-01T11:55:11.161Z,23.70
2022-12-01T11:57:41.312Z,23.50
2022-12-01T12:00:15.843Z,23.30
2022-12-01T12:02:51.795Z,22.65
2022-12-01T12:06:17.775Z,20.58
2022-12-01T12:08:53.446Z,21.73
2022-12-01T12:11:46.783Z,22.85
2022-12-01T12:14:31.773Z,22.25
2022-12-01T12:17:31.270Z,21.88
2022-12-01T12:20:22.212Z,22.27
2022-12-01T12:23:13.745Z,21.33
2022-12-01T12:26:09.727Z,22.33
2022-12-01T12:28:44.551Z,25.15
2022-12-01T12:31:29.931Z,22.90
2022-12-01T12:34:05.738Z,22.65
2022-12-01T12:36:42.183Z,21.17
2022-12-01T12:39:24.718Z,21.92
2022-12-01T12:41:55.948Z,22.05
2022-12-01T12:44:36.801Z,21.20
2022-12-01T12:47:17.624Z,21.17
2022-12-01T12:50:22.047Z,21.10
2022-12-01T12:52:54.333Z,20.40
2022-12-01T12:55:37.418Z,21.63
2022-12-01T12:58:24.202Z,20.58
2022-12-01T13:00:58.373Z,20.83
2022-12-01T13:03:49.860Z,19.55
2022-12-01T13:06:22.838Z,20.20
2022-12-01T13:08:57.598Z,19.08
2022-12-01T13:11:29.868Z,19.23
2022-12-01T13:14:18.332Z,18.92
2022-12-01T13:16:48.329Z,17.58
2022-12-01T13:19:22.751Z,18.50
2022-12-01T13:21:51.126Z,17.42
2022-12-01T13:24:23.327Z,17.27
2022-12-01T13:26:55.204Z,32.30
2022-12-01T13:29:24.577Z,40.00
2022-12-01T13:31:53.477Z,38.03
2022-12-01T13:34:39.213Z,38.90
2022-12-01T13:37:06.362Z,36.85
2022-12-01T13:42:18.802Z,36.28
2022-12-01T13:44:51.405Z,33.28
2022-12-01T13:47:21.295Z,32.28
2022-12-01T13:49:50.157Z,30.60
2022-12-01T13:52:23.483Z,30.15
2022-12-01T13:55:08.364Z,28.48
2022-12-01T13:57:36.095Z,28.52
2022-12-01T14:00:24.232Z,25.60
2022-12-01T14:03:13.135Z,25.23
2022-12-01T14:05:40.224Z,25.08
2022-12-01T14:08:22.838Z,23.67
2022-12-01T14:10:53.379Z,35.92
2022-12-01T14:16:01.222Z,48.35
2022-12-01T14:18:44.053Z,46.63
2022-12-01T14:21:12.511Z,46.03
2022-12-01T14:23:58.576Z,42.60
2022-12-01T14:26:27.586Z,39.03
2022-12-01T14:29:03.139Z,36.45
2022-12-01T14:31:33.142Z,36.00
2022-12-01T14:34:03.796Z,34.78
2022-12-01T14:36:37.861Z,33.33
2022-12-01T14:39:21.719Z,31.63
2022-12-01T14:43:12.156Z,30.17
2022-12-01T14:46:09.013Z,28.00
2022-12-01T14:48:42.415Z,26.45
2022-12-01T14:51:23.036Z,26.38
2022-12-01T14:53:51.122Z,24.95
2022-12-01T14:56:19.703Z,25.52
2022-12-01T14:58:58.496Z,59.95
2022-12-01T15:01:31.710Z,57.90
2022-12-01T15:04:00.320Z,57.15
2022-12-01T15:06:28.899Z,50.92
2022-12-01T15:09:31.995Z,47.47
2022-12-01T15:12:00.652Z,44.95
2022-12-01T15:14:36.220Z,42.20
2022-12-01T15:17:05.551Z,40.20
2022-12-01T15:19:39.145Z,36.88
2022-12-01T15:22:15.525Z,35.22
2022-12-01T15:24:43.105Z,34.97
2022-12-01T15:27:32.013Z,31.25
2022-12-01T15:30:04.351Z,32.42
2022-12-01T15:35:05.675Z,28.92
2022-12-01T15:37:43.880Z,29.80
2022-12-01T15:43:18.106Z,26.10
2022-12-01T15:45:50.884Z,26.17
2022-12-01T15:48:29.118Z,25.25
2022-12-01T15:51:04.463Z,25.55
2022-12-01T15:53:34.714Z,24.38
2022-12-01T15:56:04.536Z,24.48
2022-12-01T15:58:36.646Z,24.05
2022-12-01T16:01:12.790Z,23.05
2022-12-01T16:03:58.604Z,23.00
2022-12-01T16:06:28.851Z,23.67
2022-12-01T16:09:08.025Z,21.60
2022-12-01T16:11:34.994Z,21.55
2022-12-01T16:14:08.094Z,20.63
2022-12-01T16:16:45.968Z,20.67
2022-12-01T16:19:12.848Z,20.90
2022-12-01T16:22:14.253Z,20.55
2022-12-01T16:24:55.176Z,19.33
2022-12-01T16:27:27.121Z,19.50
2022-12-01T16:29:54.009Z,26.20
2022-12-01T16:32:35.223Z,53.78
2022-12-01T16:35:04.275Z,58.28
2022-12-01T16:37:31.649Z,56.13
2022-12-01T16:39:58.939Z,52.85
2022-12-01T16:42:25.806Z,48.20
2022-12-01T16:44:53.255Z,44.75
2022-12-01T16:47:24.282Z,41.72
2022-12-01T16:49:52.940Z,39.72
2022-12-01T16:52:49.530Z,37.85
2022-12-01T16:55:27.573Z,36.00
2022-12-01T16:57:55.520Z,33.03
2022-12-01T17:00:23.439Z,32.88
2022-12-01T17:02:50.528Z,29.67
2022-12-01T17:05:17.492Z,29.63
2022-12-01T17:07:44.606Z,28.25
2022-12-01T17:10:12.058Z,28.30
2022-12-01T17:12:39.028Z,26.70
2022-12-01T17:15:06.625Z,27.92
2022-12-01T17:17:33.692Z,26.10
2022-12-01T17:20:00.569Z,25.42
2022-12-01T17:22:27.431Z,24.02
2022-12-01T17:24:55.596Z,24.20
2022-12-01T17:27:24.626Z,23.70
2022-12-01T17:29:51.561Z,24.02
2022-12-01T17:32:18.477Z,22.35
2022-12-01T17:34:45.364Z,23.52
2022-12-01T17:37:17.535Z,23.48
2022-12-01T17:39:47.475Z,21.92
2022-12-01T17:42:14.385Z,20.85
2022-12-01T17:44:41.323Z,22.83
2022-12-01T17:47:08.231Z,21.40
2022-12-01T17:49:36.686Z,20.75
2022-12-01T17:52:04.794Z,20.58
2022-12-01T17:54:32.021Z,20.10
2022-12-01T17:56:58.994Z,20.20
2022-12-01T17:59:26.026Z,20.38
2022-12-01T18:01:53.017Z,21.63
2022-12-01T18:04:20.048Z,19.38
2022-12-01T18:06:52.305Z,19.88
2022-12-01T18:09:21.012Z,19.73
2022-12-01T18:11:48.197Z,18.40
2022-12-01T18:14:17.951Z,18.40
2022-12-01T18:16:45.678Z,18.63
2022-12-01T18:19:12.636Z,18.90
2022-12-01T18:21:40.156Z,18.98
2022-12-01T18:24:09.223Z,18.13
2022-12-01T18:26:39.845Z,18.33
2022-12-01T18:29:23.895Z,18.35
2022-12-01T18:31:50.815Z,17.23
2022-12-01T18:34:17.742Z,17.60
2022-12-01T18:36:45.131Z,17.55
2022-12-01T18:39:12.338Z,18.33
2022-12-01T18:41:39.927Z,16.83
2022-12-01T18:44:07.104Z,23.85
2022-12-01T18:46:34.679Z,40.17
2022-12-01T18:49:03.033Z,38.92
2022-12-01T18:51:31.404Z,38.67
2022-12-01T18:54:00.046Z,37.17
2022-12-01T18:56:27.211Z,35.47
2022-12-01T18:58:59.058Z,32.75
2022-12-01T19:01:40.559Z,31.90
2022-12-01T19:04:09.171Z,36.63
2022-12-01T19:06:38.118Z,80.15
2022-12-01T19:09:06.907Z,79.20
2022-12-01T19:11:33.779Z,76.90
2022-12-01T19:14:00.781Z,73.55
2022-12-01T19:16:28.201Z,70.53
2022-12-01T19:18:55.078Z,64.90
2022-12-01T19:21:21.963Z,61.42
2022-12-01T19:23:49.286Z,57.63
2022-12-01T19:26:18.875Z,54.95
2022-12-01T19:28:46.258Z,50.28
2022-12-01T19:31:19.072Z,49.03
2022-12-01T19:33:46.386Z,46.55
2022-12-01T19:36:16.233Z,45.17
2022-12-01T19:41:13.054Z,43.35
2022-12-01T19:43:40.382Z,38.65
2022-12-01T19:46:13.927Z,40.60
2022-12-01T19:48:40.958Z,35.97
2022-12-01T19:51:09.236Z,34.72
2022-12-01T19:53:36.095Z,33.42
2022-12-01T19:56:04.260Z,34.25
2022-12-01T19:58:34.453Z,32.67
2022-12-01T20:01:06.520Z,30.38
2022-12-01T20:03:33.436Z,29.33
2022-12-01T20:06:05.513Z,28.70
2022-12-01T20:08:35.744Z,28.88
2022-12-01T20:11:06.377Z,28.00
2022-12-01T20:13:35.305Z,27.42
2022-12-01T20:16:04.416Z,28.88
2022-12-01T20:18:31.382Z,63.95
2022-12-01T20:21:16.538Z,69.20
2022-12-01T20:23:44.772Z,66.35
2022-12-01T20:26:12.362Z,61.03
2022-12-01T20:28:40.152Z,56.38
2022-12-01T20:31:19.221Z,52.25
2022-12-01T20:33:46.462Z,53.45
2022-12-01T20:36:14.534Z,48.08
2022-12-01T20:38:41.871Z,47.05
2022-12-01T20:41:08.922Z,44.88
2022-12-01T20:43:35.878Z,42.78
2022-12-01T20:46:03.774Z,41.67
2022-12-01T20:48:31.359Z,40.80
2022-12-01T20:51:01.079Z,37.88
2022-12-01T20:55:55.700Z,36.65
2022-12-01T20:58:22.767Z,34.95
2022-12-01T21:00:49.876Z,34.17
2022-12-01T21:03:16.854Z,32.92
2022-12-01T21:05:44.148Z,32.72
2022-12-01T21:08:12.865Z,31.33
2022-12-01T21:10:42.587Z,61.17
2022-12-01T21:16:07.017Z,64.22
2022-12-01T21:18:49.740Z,78.28
2022-12-01T21:21:30.471Z,116.38
2022-12-01T21:24:11.322Z,105.80
2022-12-01T21:26:40.946Z,98.10
2022-12-01T21:29:17.784Z,91.47
2022-12-01T21:31:45.681Z,83.05
2022-12-01T21:34:27.112Z,78.35
2022-12-01T21:36:56.587Z,75.95
2022-12-01T21:39:25.024Z,69.47
2022-12-01T21:42:00.335Z,66.20
2022-12-01T21:44:37.900Z,63.05
2022-12-01T21:47:24.283Z,59.88
2022-12-01T21:49:54.035Z,58.33
2022-12-01T21:54:49.311Z,54.28
2022-12-01T21:57:43.062Z,50.33
2022-12-01T22:00:29.816Z,50.08
2022-12-01T22:03:08.960Z,48.95
2022-12-01T22:05:39.507Z,46.80
2022-12-01T22:08:12.388Z,46.25
2022-12-01T22:11:03.178Z,44.45
2022-12-01T22:13:45.813Z,43.40
2022-12-01T22:19:30.103Z,45.45
2022-12-01T22:22:21.912Z,72.35
2022-12-01T22:24:51.315Z,70.65
2022-12-01T22:27:40.144Z,67.88
2022-12-01T22:30:07.401Z,61.08
2022-12-01T22:32:53.244Z,59.05
2022-12-01T22:35:39.335Z,55.10
2022-12-01T22:38:06.128Z,53.50
2022-12-01T22:40:39.788Z,53.25
2022-12-01T22:43:15.873Z,51.78
2022-12-01T22:45:43.435Z,48.88
2022-12-01T22:48:39.421Z,47.75
2022-12-01T22:51:26.052Z,45.45
2022-12-01T22:54:14.106Z,43.72
2022-12-01T22:56:53.977Z,42.80
2022-12-01T22:59:29.653Z,41.95
2022-12-01T23:01:58.997Z,40.17
2022-12-01T23:04:32.687Z,42.40
2022-12-01T23:07:07.178Z,38.58
2022-12-01T23:09:42.401Z,37.90
2022-12-01T23:12:22.297Z,39.60
2022-12-01T23:14:54.286Z,37.40
2022-12-01T23:17:24.176Z,36.80
2022-12-01T23:19:52.909Z,35.58
2022-12-01T23:22:20.525Z,35.63
2022-12-01T23:24:47.558Z,34.33
2022-12-01T23:27:15.668Z,35.20
2022-12-01T23:29:42.615Z,34.22
2022-12-01T23:32:10.684Z,34.78
2022-12-01T23:34:37.645Z,33.15
2022-12-01T23:37:05.866Z,39.28
2022-12-01T23:39:35.833Z,86.43
2022-12-01T23:42:03.267Z,89.97
2022-12-01T23:44:45.355Z,83.22
2022-12-01T23:47:28.420Z,76.03
2022-12-01T23:50:01.743Z,69.15
2022-12-01T23:52:34.275Z,66.82
2022-12-01T23:55:02.594Z,62.20
2022-12-01T23:57:31.029Z,60.08
